Portland, Oregon
Traffic Map
Current Weather Conditions
Portland, Oregon
Scattered Clouds
Scattered Clouds
21°
Feels Like: 21°
Wind Chill: 21° Ceiling: Unl
Heat Index: 21° Visibility: 10mi
Dew Point: 12° Wind: 17mph
Humidity: 57% Direction: 310° (NW)
Pressure: 29.92in Gusts: 0mph
Raw Report DataKPDX 030153Z 31015KT 10SM FEW035 SCT050 SCT070 21/12 A2992 RMK AO2 PK WND 31028/0107 SLP130 T02060117
Traffic Incident Summary
Active as of:
Severity:
Category:
InformationThere was an issue retrieving the traffic information for this location. Please try a different location or try again shortly.
Advertisements
Track Severe Weather on mobile